sensor_id;sensor_type;location;lat;lon;timestamp;temperature;humidity
30280;DHT22;17097;50.916;5.344;2022-12-24T00:00:26;12.40;99.90
30280;DHT22;17097;50.916;5.344;2022-12-24T00:02:52;12.40;99.90
30280;DHT22;17097;50.916;5.344;2022-12-24T00:05:18;12.40;99.90
30280;DHT22;17097;50.916;5.344;2022-12-24T00:07:43;12.30;99.90
30280;DHT22;17097;50.916;5.344;2022-12-24T00:10:09;12.30;99.90
30280;DHT22;17097;50.916;5.344;2022-12-24T00:12:36;12.30;99.90
30280;DHT22;17097;50.916;5.344;2022-12-24T00:15:03;12.30;99.90
30280;DHT22;17097;50.916;5.344;2022-12-24T00:17:28;12.30;99.90
30280;DHT22;17097;50.916;5.344;2022-12-24T00:19:54;12.30;99.90
30280;DHT22;17097;50.916;5.344;2022-12-24T00:22:20;12.30;99.90
30280;DHT22;17097;50.916;5.344;2022-12-24T00:24:46;12.20;99.90
30280;DHT22;17097;50.916;5.344;2022-12-24T00:27:11;12.20;99.90
30280;DHT22;17097;50.916;5.344;2022-12-24T00:29:37;12.30;99.90
30280;DHT22;17097;50.916;5.344;2022-12-24T00:32:05;12.20;99.90
30280;DHT22;17097;50.916;5.344;2022-12-24T00:34:38;12.10;99.90
30280;DHT22;17097;50.916;5.344;2022-12-24T00:37:05;12.10;99.90
30280;DHT22;17097;50.916;5.344;2022-12-24T00:39:32;12.20;99.90
30280;DHT22;17097;50.916;5.344;2022-12-24T00:41:57;12.20;99.90
30280;DHT22;17097;50.916;5.344;2022-12-24T00:44:24;12.20;99.90
30280;DHT22;17097;50.916;5.344;2022-12-24T00:46:49;12.10;99.90
30280;DHT22;17097;50.916;5.344;2022-12-24T00:49:16;12.00;99.90
30280;DHT22;17097;50.916;5.344;2022-12-24T00:51:41;12.20;99.90
30280;DHT22;17097;50.916;5.344;2022-12-24T00:54:08;12.20;99.90
30280;DHT22;17097;50.916;5.344;2022-12-24T00:56:34;12.10;99.90
30280;DHT22;17097;50.916;5.344;2022-12-24T00:59:02;12.00;99.90
30280;DHT22;17097;50.916;5.344;2022-12-24T01:01:27;12.10;99.90
30280;DHT22;17097;50.916;5.344;2022-12-24T01:03:55;12.00;99.90
30280;DHT22;17097;50.916;5.344;2022-12-24T01:06:41;12.00;99.90
30280;DHT22;17097;50.916;5.344;2022-12-24T01:09:09;12.10;99.90
30280;DHT22;17097;50.916;5.344;2022-12-24T01:11:35;12.00;99.90
30280;DHT22;17097;50.916;5.344;2022-12-24T01:14:00;12.00;99.90
30280;DHT22;17097;50.916;5.344;2022-12-24T01:16:26;12.00;99.90
30280;DHT22;17097;50.916;5.344;2022-12-24T01:18:52;12.10;99.90
30280;DHT22;17097;50.916;5.344;2022-12-24T01:21:17;12.20;99.90
30280;DHT22;17097;50.916;5.344;2022-12-24T01:23:45;12.20;99.90
30280;DHT22;17097;50.916;5.344;2022-12-24T01:26:14;12.20;99.90
30280;DHT22;17097;50.916;5.344;2022-12-24T01:28:42;12.20;99.90
30280;DHT22;17097;50.916;5.344;2022-12-24T01:31:16;12.10;99.90
30280;DHT22;17097;50.916;5.344;2022-12-24T01:33:47;12.10;99.90
30280;DHT22;17097;50.916;5.344;2022-12-24T01:36:13;12.10;99.90
30280;DHT22;17097;50.916;5.344;2022-12-24T01:38:40;12.10;99.90
30280;DHT22;17097;50.916;5.344;2022-12-24T01:41:06;12.30;99.90
30280;DHT22;17097;50.916;5.344;2022-12-24T01:43:50;12.20;99.90
30280;DHT22;17097;50.916;5.344;2022-12-24T01:46:25;12.10;99.90
30280;DHT22;17097;50.916;5.344;2022-12-24T01:49:01;12.00;99.90
30280;DHT22;17097;50.916;5.344;2022-12-24T01:51:33;12.00;99.90
30280;DHT22;17097;50.916;5.344;2022-12-24T01:54:04;12.00;99.90
30280;DHT22;17097;50.916;5.344;2022-12-24T01:56:38;12.00;99.90
30280;DHT22;17097;50.916;5.344;2022-12-24T01:59:10;11.90;99.90
30280;DHT22;17097;50.916;5.344;2022-12-24T02:01:40;12.00;99.90
30280;DHT22;17097;50.916;5.344;2022-12-24T02:04:29;12.00;99.90
30280;DHT22;17097;50.916;5.344;2022-12-24T02:06:57;11.90;99.90
30280;DHT22;17097;50.916;5.344;2022-12-24T02:09:22;11.90;99.90
30280;DHT22;17097;50.916;5.344;2022-12-24T02:11:51;11.90;99.90
30280;DHT22;17097;50.916;5.344;2022-12-24T02:14:17;11.90;99.90
30280;DHT22;17097;50.916;5.344;2022-12-24T02:19:21;11.80;99.90
30280;DHT22;17097;50.916;5.344;2022-12-24T02:30:26;11.60;99.90
30280;DHT22;17097;50.916;5.344;2022-12-24T02:33:17;11.70;99.90
30280;DHT22;17097;50.916;5.344;2022-12-24T02:36:04;11.60;99.90
30280;DHT22;17097;50.916;5.344;2022-12-24T02:38:46;11.70;99.90
30280;DHT22;17097;50.916;5.344;2022-12-24T02:41:29;11.70;99.90
30280;DHT22;17097;50.916;5.344;2022-12-24T02:44:17;11.70;99.90
30280;DHT22;17097;50.916;5.344;2022-12-24T02:46:44;11.80;99.90
30280;DHT22;17097;50.916;5.344;2022-12-24T02:49:15;11.70;99.90
30280;DHT22;17097;50.916;5.344;2022-12-24T02:51:41;11.60;99.90
30280;DHT22;17097;50.916;5.344;2022-12-24T02:54:07;11.70;99.90
30280;DHT22;17097;50.916;5.344;2022-12-24T03:08:26;11.60;99.90
30280;DHT22;17097;50.916;5.344;2022-12-24T03:13:18;11.40;99.90
30280;DHT22;17097;50.916;5.344;2022-12-24T03:15:46;11.40;99.90
30280;DHT22;17097;50.916;5.344;2022-12-24T03:18:17;11.50;99.90
30280;DHT22;17097;50.916;5.344;2022-12-24T03:20:59;11.50;99.90
30280;DHT22;17097;50.916;5.344;2022-12-24T03:23:26;11.50;99.90
30280;DHT22;17097;50.916;5.344;2022-12-24T03:25:54;11.40;99.90
30280;DHT22;17097;50.916;5.344;2022-12-24T03:28:25;11.40;99.90
30280;DHT22;17097;50.916;5.344;2022-12-24T03:30:52;11.40;99.90
30280;DHT22;17097;50.916;5.344;2022-12-24T03:33:19;11.50;99.90
30280;DHT22;17097;50.916;5.344;2022-12-24T03:35:47;11.50;99.90
30280;DHT22;17097;50.916;5.344;2022-12-24T03:38:12;11.50;99.90
30280;DHT22;17097;50.916;5.344;2022-12-24T03:40:38;11.60;99.90
30280;DHT22;17097;50.916;5.344;2022-12-24T03:43:04;11.50;99.90
30280;DHT22;17097;50.916;5.344;2022-12-24T03:45:30;11.40;99.90
30280;DHT22;17097;50.916;5.344;2022-12-24T03:47:55;11.50;99.90
30280;DHT22;17097;50.916;5.344;2022-12-24T03:50:21;11.40;99.90
30280;DHT22;17097;50.916;5.344;2022-12-24T03:52:47;11.40;99.90
30280;DHT22;17097;50.916;5.344;2022-12-24T03:55:16;11.50;99.90
30280;DHT22;17097;50.916;5.344;2022-12-24T03:57:44;11.50;99.90
30280;DHT22;17097;50.916;5.344;2022-12-24T04:00:10;11.40;99.90
30280;DHT22;17097;50.916;5.344;2022-12-24T04:02:39;11.50;99.90
30280;DHT22;17097;50.916;5.344;2022-12-24T04:05:06;11.50;99.90
30280;DHT22;17097;50.916;5.344;2022-12-24T04:07:32;11.50;99.90
30280;DHT22;17097;50.916;5.344;2022-12-24T04:10:01;11.60;99.90
30280;DHT22;17097;50.916;5.344;2022-12-24T04:12:27;11.60;99.90
30280;DHT22;17097;50.916;5.344;2022-12-24T04:14:53;11.60;99.90
30280;DHT22;17097;50.916;5.344;2022-12-24T04:17:21;11.70;99.90
30280;DHT22;17097;50.916;5.344;2022-12-24T04:19:48;11.80;99.90
30280;DHT22;17097;50.916;5.344;2022-12-24T04:22:14;11.80;99.90
30280;DHT22;17097;50.916;5.344;2022-12-24T04:24:40;11.80;99.90
30280;DHT22;17097;50.916;5.344;2022-12-24T04:27:06;11.80;99.90
30280;DHT22;17097;50.916;5.344;2022-12-24T04:29:31;11.80;99.90
30280;DHT22;17097;50.916;5.344;2022-12-24T04:31:57;11.70;99.90
30280;DHT22;17097;50.916;5.344;2022-12-24T04:34:23;11.80;99.90
30280;DHT22;17097;50.916;5.344;2022-12-24T04:36:49;11.80;99.90
30280;DHT22;17097;50.916;5.344;2022-12-24T04:39:15;11.80;99.90
30280;DHT22;17097;50.916;5.344;2022-12-24T04:41:41;11.80;99.90
30280;DHT22;17097;50.916;5.344;2022-12-24T04:44:08;11.80;99.90
30280;DHT22;17097;50.916;5.344;2022-12-24T04:46:35;11.70;99.90
30280;DHT22;17097;50.916;5.344;2022-12-24T04:49:01;11.70;99.90
30280;DHT22;17097;50.916;5.344;2022-12-24T04:51:29;11.60;99.90
30280;DHT22;17097;50.916;5.344;2022-12-24T04:53:55;11.60;99.90
30280;DHT22;17097;50.916;5.344;2022-12-24T04:56:24;11.60;99.90
30280;DHT22;17097;50.916;5.344;2022-12-24T04:58:51;11.60;99.90
30280;DHT22;17097;50.916;5.344;2022-12-24T05:01:28;11.60;99.90
30280;DHT22;17097;50.916;5.344;2022-12-24T05:03:57;11.50;99.90
30280;DHT22;17097;50.916;5.344;2022-12-24T05:06:25;11.60;99.90
30280;DHT22;17097;50.916;5.344;2022-12-24T05:08:55;11.70;99.90
30280;DHT22;17097;50.916;5.344;2022-12-24T05:11:22;11.70;99.90
30280;DHT22;17097;50.916;5.344;2022-12-24T05:13:48;11.70;99.90
30280;DHT22;17097;50.916;5.344;2022-12-24T05:16:18;11.80;99.90
30280;DHT22;17097;50.916;5.344;2022-12-24T05:18:44;11.60;99.90
30280;DHT22;17097;50.916;5.344;2022-12-24T05:21:13;11.60;99.90
30280;DHT22;17097;50.916;5.344;2022-12-24T05:23:39;11.60;99.90
30280;DHT22;17097;50.916;5.344;2022-12-24T05:26:36;11.60;99.90
30280;DHT22;17097;50.916;5.344;2022-12-24T05:29:05;11.80;99.90
30280;DHT22;17097;50.916;5.344;2022-12-24T05:31:34;11.80;99.90
30280;DHT22;17097;50.916;5.344;2022-12-24T05:34:00;11.80;99.90
30280;DHT22;17097;50.916;5.344;2022-12-24T05:36:27;11.70;99.90
30280;DHT22;17097;50.916;5.344;2022-12-24T05:38:53;11.80;99.90
30280;DHT22;17097;50.916;5.344;2022-12-24T05:41:19;11.70;99.90
30280;DHT22;17097;50.916;5.344;2022-12-24T05:43:45;11.70;99.90
30280;DHT22;17097;50.916;5.344;2022-12-24T05:46:13;11.70;99.90
30280;DHT22;17097;50.916;5.344;2022-12-24T05:48:41;11.70;99.90
30280;DHT22;17097;50.916;5.344;2022-12-24T05:51:09;11.60;99.90
30280;DHT22;17097;50.916;5.344;2022-12-24T05:53:36;11.80;99.90
30280;DHT22;17097;50.916;5.344;2022-12-24T05:56:06;11.90;99.90
30280;DHT22;17097;50.916;5.344;2022-12-24T05:58:33;11.80;99.90
30280;DHT22;17097;50.916;5.344;2022-12-24T06:01:00;11.80;99.90
30280;DHT22;17097;50.916;5.344;2022-12-24T06:03:27;11.80;99.90
30280;DHT22;17097;50.916;5.344;2022-12-24T06:06:05;11.80;99.90
30280;DHT22;17097;50.916;5.344;2022-12-24T06:08:31;11.70;99.90
30280;DHT22;17097;50.916;5.344;2022-12-24T06:11:00;11.80;99.90
30280;DHT22;17097;50.916;5.344;2022-12-24T06:13:26;11.80;99.90
30280;DHT22;17097;50.916;5.344;2022-12-24T06:15:57;11.90;99.90
30280;DHT22;17097;50.916;5.344;2022-12-24T06:18:23;12.00;99.90
30280;DHT22;17097;50.916;5.344;2022-12-24T06:20:51;11.90;99.90
30280;DHT22;17097;50.916;5.344;2022-12-24T06:23:17;11.90;99.90
30280;DHT22;17097;50.916;5.344;2022-12-24T06:25:44;11.90;99.90
30280;DHT22;17097;50.916;5.344;2022-12-24T06:28:12;11.80;99.90
30280;DHT22;17097;50.916;5.344;2022-12-24T06:30:38;12.00;99.90
30280;DHT22;17097;50.916;5.344;2022-12-24T06:33:07;11.90;99.90
30280;DHT22;17097;50.916;5.344;2022-12-24T06:35:33;11.90;99.90
30280;DHT22;17097;50.916;5.344;2022-12-24T06:37:59;11.90;99.90
30280;DHT22;17097;50.916;5.344;2022-12-24T06:40:26;11.80;99.90
30280;DHT22;17097;50.916;5.344;2022-12-24T06:42:52;11.80;99.90
30280;DHT22;17097;50.916;5.344;2022-12-24T06:45:20;11.70;99.90
30280;DHT22;17097;50.916;5.344;2022-12-24T06:47:46;11.70;99.90
30280;DHT22;17097;50.916;5.344;2022-12-24T06:50:12;11.70;99.90
30280;DHT22;17097;50.916;5.344;2022-12-24T06:52:38;11.70;99.90
30280;DHT22;17097;50.916;5.344;2022-12-24T06:55:04;11.70;99.90
30280;DHT22;17097;50.916;5.344;2022-12-24T06:57:30;11.70;99.90
30280;DHT22;17097;50.916;5.344;2022-12-24T06:59:57;11.70;99.90
30280;DHT22;17097;50.916;5.344;2022-12-24T07:02:23;11.70;99.90
30280;DHT22;17097;50.916;5.344;2022-12-24T07:04:51;11.80;99.90
30280;DHT22;17097;50.916;5.344;2022-12-24T07:07:17;11.60;99.90
30280;DHT22;17097;50.916;5.344;2022-12-24T07:09:43;11.60;99.90
30280;DHT22;17097;50.916;5.344;2022-12-24T07:12:09;11.60;99.90
30280;DHT22;17097;50.916;5.344;2022-12-24T07:14:37;11.70;99.90
30280;DHT22;17097;50.916;5.344;2022-12-24T07:17:02;11.70;99.90
30280;DHT22;17097;50.916;5.344;2022-12-24T07:19:29;11.70;99.90
30280;DHT22;17097;50.916;5.344;2022-12-24T07:21:55;11.60;99.90
30280;DHT22;17097;50.916;5.344;2022-12-24T07:24:20;11.60;99.90
30280;DHT22;17097;50.916;5.344;2022-12-24T07:26:46;11.60;99.90
30280;DHT22;17097;50.916;5.344;2022-12-24T07:29:13;11.50;99.90
30280;DHT22;17097;50.916;5.344;2022-12-24T07:31:39;11.60;99.90
30280;DHT22;17097;50.916;5.344;2022-12-24T07:34:05;11.50;99.90
30280;DHT22;17097;50.916;5.344;2022-12-24T07:36:30;11.60;99.90
30280;DHT22;17097;50.916;5.344;2022-12-24T07:38:56;11.60;99.90
30280;DHT22;17097;50.916;5.344;2022-12-24T07:41:22;11.60;99.90
30280;DHT22;17097;50.916;5.344;2022-12-24T07:43:49;11.50;99.90
30280;DHT22;17097;50.916;5.344;2022-12-24T07:46:14;11.50;99.90
30280;DHT22;17097;50.916;5.344;2022-12-24T07:48:40;11.60;99.90
30280;DHT22;17097;50.916;5.344;2022-12-24T07:51:06;11.50;99.90
30280;DHT22;17097;50.916;5.344;2022-12-24T07:53:34;11.60;99.90
30280;DHT22;17097;50.916;5.344;2022-12-24T07:56:00;11.60;99.90
30280;DHT22;17097;50.916;5.344;2022-12-24T07:58:26;11.50;99.90
30280;DHT22;17097;50.916;5.344;2022-12-24T08:00:58;11.40;99.90
30280;DHT22;17097;50.916;5.344;2022-12-24T08:03:25;11.40;99.90
30280;DHT22;17097;50.916;5.344;2022-12-24T08:05:51;11.50;99.90
30280;DHT22;17097;50.916;5.344;2022-12-24T08:08:19;11.70;99.90
30280;DHT22;17097;50.916;5.344;2022-12-24T08:10:48;11.80;99.90
30280;DHT22;17097;50.916;5.344;2022-12-24T08:13:17;11.70;99.90
30280;DHT22;17097;50.916;5.344;2022-12-24T08:15:43;11.60;99.90
30280;DHT22;17097;50.916;5.344;2022-12-24T08:18:11;11.60;99.90
30280;DHT22;17097;50.916;5.344;2022-12-24T08:20:40;11.70;99.90
30280;DHT22;17097;50.916;5.344;2022-12-24T08:23:06;11.70;99.90
30280;DHT22;17097;50.916;5.344;2022-12-24T08:25:33;11.80;99.90
30280;DHT22;17097;50.916;5.344;2022-12-24T08:27:59;11.80;99.90
30280;DHT22;17097;50.916;5.344;2022-12-24T08:30:28;11.70;99.90
30280;DHT22;17097;50.916;5.344;2022-12-24T08:32:54;11.70;99.90
30280;DHT22;17097;50.916;5.344;2022-12-24T08:35:20;11.80;99.90
30280;DHT22;17097;50.916;5.344;2022-12-24T08:37:46;11.90;99.90
30280;DHT22;17097;50.916;5.344;2022-12-24T08:40:12;11.90;99.90
30280;DHT22;17097;50.916;5.344;2022-12-24T08:42:37;11.90;99.90
30280;DHT22;17097;50.916;5.344;2022-12-24T08:45:03;11.90;99.90
30280;DHT22;17097;50.916;5.344;2022-12-24T08:47:30;12.10;99.90
30280;DHT22;17097;50.916;5.344;2022-12-24T08:49:58;12.10;99.90
30280;DHT22;17097;50.916;5.344;2022-12-24T08:52:24;12.00;99.90
30280;DHT22;17097;50.916;5.344;2022-12-24T08:54:49;12.10;99.90
30280;DHT22;17097;50.916;5.344;2022-12-24T08:57:15;12.20;99.90
30280;DHT22;17097;50.916;5.344;2022-12-24T08:59:41;12.30;99.90
30280;DHT22;17097;50.916;5.344;2022-12-24T09:02:08;12.40;99.90
30280;DHT22;17097;50.916;5.344;2022-12-24T09:04:37;12.40;99.90
30280;DHT22;17097;50.916;5.344;2022-12-24T09:07:04;12.50;99.90
30280;DHT22;17097;50.916;5.344;2022-12-24T09:09:31;12.50;99.90
30280;DHT22;17097;50.916;5.344;2022-12-24T09:11:57;12.60;99.90
30280;DHT22;17097;50.916;5.344;2022-12-24T09:14:23;12.60;99.90
30280;DHT22;17097;50.916;5.344;2022-12-24T09:16:48;12.60;99.90
30280;DHT22;17097;50.916;5.344;2022-12-24T09:19:17;12.80;99.90
30280;DHT22;17097;50.916;5.344;2022-12-24T09:21:43;12.90;99.90
30280;DHT22;17097;50.916;5.344;2022-12-24T09:24:09;13.00;99.90
30280;DHT22;17097;50.916;5.344;2022-12-24T09:26:35;13.20;99.90
30280;DHT22;17097;50.916;5.344;2022-12-24T09:29:03;13.30;99.90
30280;DHT22;17097;50.916;5.344;2022-12-24T09:31:29;13.40;99.90
30280;DHT22;17097;50.916;5.344;2022-12-24T09:33:55;13.40;99.90
30280;DHT22;17097;50.916;5.344;2022-12-24T09:36:20;13.40;99.90
30280;DHT22;17097;50.916;5.344;2022-12-24T09:38:47;13.50;99.90
30280;DHT22;17097;50.916;5.344;2022-12-24T09:41:23;13.30;99.90
30280;DHT22;17097;50.916;5.344;2022-12-24T09:43:59;13.40;99.90
30280;DHT22;17097;50.916;5.344;2022-12-24T09:46:31;13.40;99.90
30280;DHT22;17097;50.916;5.344;2022-12-24T09:49:02;13.30;99.90
30280;DHT22;17097;50.916;5.344;2022-12-24T09:51:43;13.20;99.90
30280;DHT22;17097;50.916;5.344;2022-12-24T09:54:29;13.20;99.90
30280;DHT22;17097;50.916;5.344;2022-12-24T09:57:03;13.00;99.90
30280;DHT22;17097;50.916;5.344;2022-12-24T09:59:48;13.00;99.90
30280;DHT22;17097;50.916;5.344;2022-12-24T10:02:17;12.90;99.90
30280;DHT22;17097;50.916;5.344;2022-12-24T10:04:47;12.90;99.90
30280;DHT22;17097;50.916;5.344;2022-12-24T10:10:42;13.00;99.90
30280;DHT22;17097;50.916;5.344;2022-12-24T10:22:14;12.90;99.90
30280;DHT22;17097;50.916;5.344;2022-12-24T10:24:47;13.00;99.90
30280;DHT22;17097;50.916;5.344;2022-12-24T10:27:18;13.00;99.90
30280;DHT22;17097;50.916;5.344;2022-12-24T10:29:51;13.10;99.90
30280;DHT22;17097;50.916;5.344;2022-12-24T10:32:30;13.00;99.90
30280;DHT22;17097;50.916;5.344;2022-12-24T10:35:17;13.00;99.90
30280;DHT22;17097;50.916;5.344;2022-12-24T10:37:45;13.10;99.90
30280;DHT22;17097;50.916;5.344;2022-12-24T10:40:53;13.20;99.90
30280;DHT22;17097;50.916;5.344;2022-12-24T10:43:22;13.20;99.90
30280;DHT22;17097;50.916;5.344;2022-12-24T10:45:57;13.10;99.90
30280;DHT22;17097;50.916;5.344;2022-12-24T10:48:41;13.20;99.90
30280;DHT22;17097;50.916;5.344;2022-12-24T10:51:39;13.20;99.90
30280;DHT22;17097;50.916;5.344;2022-12-24T10:54:19;13.30;99.90
30280;DHT22;17097;50.916;5.344;2022-12-24T10:56:51;13.40;99.90
30280;DHT22;17097;50.916;5.344;2022-12-24T11:04:50;13.40;99.90
30280;DHT22;17097;50.916;5.344;2022-12-24T11:07:21;13.50;99.90
30280;DHT22;17097;50.916;5.344;2022-12-24T11:10:03;13.40;99.90
30280;DHT22;17097;50.916;5.344;2022-12-24T11:12:32;13.40;99.90
30280;DHT22;17097;50.916;5.344;2022-12-24T11:15:23;13.30;99.90
30280;DHT22;17097;50.916;5.344;2022-12-24T11:17:55;13.30;99.90
30280;DHT22;17097;50.916;5.344;2022-12-24T11:20:25;13.40;99.90
30280;DHT22;17097;50.916;5.344;2022-12-24T11:22:52;13.40;99.90
30280;DHT22;17097;50.916;5.344;2022-12-24T11:27:50;13.50;99.90
30280;DHT22;17097;50.916;5.344;2022-12-24T11:30:23;13.40;99.90
30280;DHT22;17097;50.916;5.344;2022-12-24T11:33:16;13.30;99.90
30280;DHT22;17097;50.916;5.344;2022-12-24T11:35:49;13.40;99.90
30280;DHT22;17097;50.916;5.344;2022-12-24T11:38:26;13.50;99.90
30280;DHT22;17097;50.916;5.344;2022-12-24T11:40:59;13.60;99.90
30280;DHT22;17097;50.916;5.344;2022-12-24T11:43:27;13.60;99.90
30280;DHT22;17097;50.916;5.344;2022-12-24T11:46:36;13.60;99.90
30280;DHT22;17097;50.916;5.344;2022-12-24T11:49:30;13.70;99.90
30280;DHT22;17097;50.916;5.344;2022-12-24T11:57:53;13.70;99.90
30280;DHT22;17097;50.916;5.344;2022-12-24T12:00:20;13.90;99.90
30280;DHT22;17097;50.916;5.344;2022-12-24T12:02:47;14.00;99.90
30280;DHT22;17097;50.916;5.344;2022-12-24T12:05:31;14.20;99.90
30280;DHT22;17097;50.916;5.344;2022-12-24T12:08:07;14.10;99.90
30280;DHT22;17097;50.916;5.344;2022-12-24T12:10:37;14.30;99.90
30280;DHT22;17097;50.916;5.344;2022-12-24T12:13:14;14.30;99.90
30280;DHT22;17097;50.916;5.344;2022-12-24T12:19:03;14.10;99.90
30280;DHT22;17097;50.916;5.344;2022-12-24T12:21:40;14.10;99.90
30280;DHT22;17097;50.916;5.344;2022-12-24T12:24:33;14.30;99.90
30280;DHT22;17097;50.916;5.344;2022-12-24T12:27:15;14.40;99.90
30280;DHT22;17097;50.916;5.344;2022-12-24T12:29:57;14.50;99.90
30280;DHT22;17097;50.916;5.344;2022-12-24T12:32:43;14.80;99.90
30280;DHT22;17097;50.916;5.344;2022-12-24T12:35:34;14.80;99.90
30280;DHT22;17097;50.916;5.344;2022-12-24T12:38:08;15.10;99.90
30280;DHT22;17097;50.916;5.344;2022-12-24T12:43:36;15.00;99.90
30280;DHT22;17097;50.916;5.344;2022-12-24T12:55:21;15.10;99.90
30280;DHT22;17097;50.916;5.344;2022-12-24T12:57:22;14.80;99.90
30280;DHT22;17097;50.916;5.344;2022-12-24T13:00:10;14.80;99.90
30280;DHT22;17097;50.916;5.344;2022-12-24T13:08:47;14.80;99.90
30280;DHT22;17097;50.916;5.344;2022-12-24T13:15:01;14.80;99.90
30280;DHT22;17097;50.916;5.344;2022-12-24T13:20:30;15.00;99.90
30280;DHT22;17097;50.916;5.344;2022-12-24T13:22:59;15.00;99.90
30280;DHT22;17097;50.916;5.344;2022-12-24T13:25:41;14.90;99.90
30280;DHT22;17097;50.916;5.344;2022-12-24T13:33:57;15.10;99.90
30280;DHT22;17097;50.916;5.344;2022-12-24T13:36:23;14.90;99.90
30280;DHT22;17097;50.916;5.344;2022-12-24T13:38:56;14.90;99.90
30280;DHT22;17097;50.916;5.344;2022-12-24T13:47:00;15.10;99.90
30280;DHT22;17097;50.916;5.344;2022-12-24T13:49:48;14.90;99.90
30280;DHT22;17097;50.916;5.344;2022-12-24T13:52:21;14.90;99.90
30280;DHT22;17097;50.916;5.344;2022-12-24T14:02:36;14.90;99.90
30280;DHT22;17097;50.916;5.344;2022-12-24T14:05:07;14.90;99.90
30280;DHT22;17097;50.916;5.344;2022-12-24T14:07:45;14.80;99.90
30280;DHT22;17097;50.916;5.344;2022-12-24T14:10:21;14.70;99.90
30280;DHT22;17097;50.916;5.344;2022-12-24T14:12:49;14.70;99.90
30280;DHT22;17097;50.916;5.344;2022-12-24T14:18:20;14.50;99.90
30280;DHT22;17097;50.916;5.344;2022-12-24T14:20:49;14.40;99.90
30280;DHT22;17097;50.916;5.344;2022-12-24T14:23:33;14.40;99.90
30280;DHT22;17097;50.916;5.344;2022-12-24T14:26:01;14.30;99.90
30280;DHT22;17097;50.916;5.344;2022-12-24T14:28:34;14.20;99.90
30280;DHT22;17097;50.916;5.344;2022-12-24T14:31:04;14.30;99.90
30280;DHT22;17097;50.916;5.344;2022-12-24T14:33:32;14.20;99.90
30280;DHT22;17097;50.916;5.344;2022-12-24T14:35:58;14.20;99.90
30280;DHT22;17097;50.916;5.344;2022-12-24T14:38:25;14.20;99.90
30280;DHT22;17097;50.916;5.344;2022-12-24T14:41:24;14.10;99.90
30280;DHT22;17097;50.916;5.344;2022-12-24T14:44:09;14.20;99.90
30280;DHT22;17097;50.916;5.344;2022-12-24T14:46:56;14.10;99.90
30280;DHT22;17097;50.916;5.344;2022-12-24T14:52:33;14.10;99.90
30280;DHT22;17097;50.916;5.344;2022-12-24T14:55:00;14.10;99.90
30280;DHT22;17097;50.916;5.344;2022-12-24T14:57:45;14.00;99.90
30280;DHT22;17097;50.916;5.344;2022-12-24T15:00:21;13.90;99.90
30280;DHT22;17097;50.916;5.344;2022-12-24T15:02:50;13.70;99.90
30280;DHT22;17097;50.916;5.344;2022-12-24T15:05:22;13.70;99.90
30280;DHT22;17097;50.916;5.344;2022-12-24T15:08:03;13.70;99.90
30280;DHT22;17097;50.916;5.344;2022-12-24T15:10:43;13.70;99.90
30280;DHT22;17097;50.916;5.344;2022-12-24T15:13:46;13.60;99.90
30280;DHT22;17097;50.916;5.344;2022-12-24T15:16:20;13.60;99.90
30280;DHT22;17097;50.916;5.344;2022-12-24T15:18:52;13.50;99.90
30280;DHT22;17097;50.916;5.344;2022-12-24T15:21:33;13.50;99.90
30280;DHT22;17097;50.916;5.344;2022-12-24T15:24:02;13.50;99.90
30280;DHT22;17097;50.916;5.344;2022-12-24T15:26:33;13.40;99.90
30280;DHT22;17097;50.916;5.344;2022-12-24T15:29:12;13.40;99.90
30280;DHT22;17097;50.916;5.344;2022-12-24T15:31:39;13.30;99.90
30280;DHT22;17097;50.916;5.344;2022-12-24T15:34:05;13.20;99.90
30280;DHT22;17097;50.916;5.344;2022-12-24T15:36:33;13.00;99.90
30280;DHT22;17097;50.916;5.344;2022-12-24T15:39:06;13.00;99.90
30280;DHT22;17097;50.916;5.344;2022-12-24T15:41:39;13.10;99.90
30280;DHT22;17097;50.916;5.344;2022-12-24T15:44:31;13.00;99.90
30280;DHT22;17097;50.916;5.344;2022-12-24T15:46:59;13.10;99.90
30280;DHT22;17097;50.916;5.344;2022-12-24T15:49:26;13.00;99.90
30280;DHT22;17097;50.916;5.344;2022-12-24T15:51:53;13.00;99.90
30280;DHT22;17097;50.916;5.344;2022-12-24T15:54:26;12.90;99.90
30280;DHT22;17097;50.916;5.344;2022-12-24T15:56:54;12.80;99.90
30280;DHT22;17097;50.916;5.344;2022-12-24T15:59:33;12.70;99.90
30280;DHT22;17097;50.916;5.344;2022-12-24T16:11:06;12.60;99.90
30280;DHT22;17097;50.916;5.344;2022-12-24T16:13:35;12.50;99.90
30280;DHT22;17097;50.916;5.344;2022-12-24T16:16:10;12.40;99.90
30280;DHT22;17097;50.916;5.344;2022-12-24T16:18:51;12.30;99.90
30280;DHT22;17097;50.916;5.344;2022-12-24T16:21:38;12.40;99.90
30280;DHT22;17097;50.916;5.344;2022-12-24T16:24:20;12.40;99.90
30280;DHT22;17097;50.916;5.344;2022-12-24T16:26:47;12.40;99.90
30280;DHT22;17097;50.916;5.344;2022-12-24T16:29:14;12.40;99.90
30280;DHT22;17097;50.916;5.344;2022-12-24T16:31:49;12.40;99.90
30280;DHT22;17097;50.916;5.344;2022-12-24T16:34:16;12.40;99.90
30280;DHT22;17097;50.916;5.344;2022-12-24T16:36:44;12.40;99.90
30280;DHT22;17097;50.916;5.344;2022-12-24T16:39:12;12.30;99.90
30280;DHT22;17097;50.916;5.344;2022-12-24T16:41:51;12.30;99.90
30280;DHT22;17097;50.916;5.344;2022-12-24T16:44:35;12.20;99.90
30280;DHT22;17097;50.916;5.344;2022-12-24T16:47:01;12.20;99.90
30280;DHT22;17097;50.916;5.344;2022-12-24T16:49:28;12.20;99.90
30280;DHT22;17097;50.916;5.344;2022-12-24T16:51:54;12.20;99.90
30280;DHT22;17097;50.916;5.344;2022-12-24T16:54:20;12.10;99.90
30280;DHT22;17097;50.916;5.344;2022-12-24T16:56:46;12.10;99.90
30280;DHT22;17097;50.916;5.344;2022-12-24T16:59:15;12.10;99.90
30280;DHT22;17097;50.916;5.344;2022-12-24T17:01:43;12.10;99.90
30280;DHT22;17097;50.916;5.344;2022-12-24T17:04:11;12.00;99.90
30280;DHT22;17097;50.916;5.344;2022-12-24T17:06:37;12.00;99.90
30280;DHT22;17097;50.916;5.344;2022-12-24T17:09:03;12.00;99.90
30280;DHT22;17097;50.916;5.344;2022-12-24T17:11:29;12.00;99.90
30280;DHT22;17097;50.916;5.344;2022-12-24T17:13:57;12.00;99.90
30280;DHT22;17097;50.916;5.344;2022-12-24T17:16:23;12.00;99.90
30280;DHT22;17097;50.916;5.344;2022-12-24T17:18:50;12.00;99.90
30280;DHT22;17097;50.916;5.344;2022-12-24T17:21:17;12.00;99.90
30280;DHT22;17097;50.916;5.344;2022-12-24T17:23:43;12.00;99.90
30280;DHT22;17097;50.916;5.344;2022-12-24T17:26:09;12.00;99.90
30280;DHT22;17097;50.916;5.344;2022-12-24T17:28:36;11.90;99.90
30280;DHT22;17097;50.916;5.344;2022-12-24T17:31:08;12.00;99.90
30280;DHT22;17097;50.916;5.344;2022-12-24T17:33:35;12.10;99.90
30280;DHT22;17097;50.916;5.344;2022-12-24T17:36:03;12.00;99.90
30280;DHT22;17097;50.916;5.344;2022-12-24T17:38:29;12.00;99.90
30280;DHT22;17097;50.916;5.344;2022-12-24T17:41:02;11.90;99.90
30280;DHT22;17097;50.916;5.344;2022-12-24T17:43:28;11.90;99.90